sensor_id;sensor_type;location;lat;lon;timestamp;temperature;humidity
13798;DHT22;6970;51.340;3.240;2024-01-15T00:01:22;5.30;99.90
13798;DHT22;6970;51.340;3.240;2024-01-15T00:03:49;5.30;99.90
13798;DHT22;6970;51.340;3.240;2024-01-15T00:06:16;5.30;99.90
13798;DHT22;6970;51.340;3.240;2024-01-15T00:08:43;5.30;99.90
13798;DHT22;6970;51.340;3.240;2024-01-15T00:11:11;5.30;99.90
13798;DHT22;6970;51.340;3.240;2024-01-15T00:13:39;5.30;99.90
13798;DHT22;6970;51.340;3.240;2024-01-15T00:16:07;5.30;99.90
13798;DHT22;6970;51.340;3.240;2024-01-15T00:18:35;5.30;99.90
13798;DHT22;6970;51.340;3.240;2024-01-15T00:21:09;5.30;99.90
13798;DHT22;6970;51.340;3.240;2024-01-15T00:23:42;5.30;99.90
13798;DHT22;6970;51.340;3.240;2024-01-15T00:26:09;5.30;99.90
13798;DHT22;6970;51.340;3.240;2024-01-15T00:28:37;5.40;99.90
13798;DHT22;6970;51.340;3.240;2024-01-15T00:31:08;5.40;99.90
13798;DHT22;6970;51.340;3.240;2024-01-15T00:33:35;5.40;99.90
13798;DHT22;6970;51.340;3.240;2024-01-15T00:36:05;5.40;99.90
13798;DHT22;6970;51.340;3.240;2024-01-15T00:38:32;5.40;99.90
13798;DHT22;6970;51.340;3.240;2024-01-15T00:41:00;5.40;99.90
13798;DHT22;6970;51.340;3.240;2024-01-15T00:43:27;5.40;99.90
13798;DHT22;6970;51.340;3.240;2024-01-15T00:45:56;5.40;99.90
13798;DHT22;6970;51.340;3.240;2024-01-15T00:48:26;5.40;99.90
13798;DHT22;6970;51.340;3.240;2024-01-15T00:50:55;5.40;99.90
13798;DHT22;6970;51.340;3.240;2024-01-15T00:53:22;5.40;99.90
13798;DHT22;6970;51.340;3.240;2024-01-15T00:55:53;5.40;99.90
13798;DHT22;6970;51.340;3.240;2024-01-15T00:58:20;5.40;99.90
13798;DHT22;6970;51.340;3.240;2024-01-15T01:00:49;5.40;99.90
13798;DHT22;6970;51.340;3.240;2024-01-15T01:03:16;5.40;99.90
13798;DHT22;6970;51.340;3.240;2024-01-15T01:05:43;5.40;99.90
13798;DHT22;6970;51.340;3.240;2024-01-15T01:08:12;5.40;99.90
13798;DHT22;6970;51.340;3.240;2024-01-15T01:10:39;5.40;99.90
13798;DHT22;6970;51.340;3.240;2024-01-15T01:13:12;5.40;99.90
13798;DHT22;6970;51.340;3.240;2024-01-15T01:15:42;5.40;99.90
13798;DHT22;6970;51.340;3.240;2024-01-15T01:18:10;5.40;99.90
13798;DHT22;6970;51.340;3.240;2024-01-15T01:20:41;5.40;99.90
13798;DHT22;6970;51.340;3.240;2024-01-15T01:23:08;5.40;99.90
13798;DHT22;6970;51.340;3.240;2024-01-15T01:25:37;5.30;99.90
13798;DHT22;6970;51.340;3.240;2024-01-15T01:28:10;5.40;99.90
13798;DHT22;6970;51.340;3.240;2024-01-15T01:30:41;5.30;99.90
13798;DHT22;6970;51.340;3.240;2024-01-15T01:33:08;5.30;99.90
13798;DHT22;6970;51.340;3.240;2024-01-15T01:35:42;5.30;99.90
13798;DHT22;6970;51.340;3.240;2024-01-15T01:38:16;5.30;99.90
13798;DHT22;6970;51.340;3.240;2024-01-15T01:40:43;5.30;99.90
13798;DHT22;6970;51.340;3.240;2024-01-15T01:43:12;5.30;99.90
13798;DHT22;6970;51.340;3.240;2024-01-15T01:45:41;5.30;99.90
13798;DHT22;6970;51.340;3.240;2024-01-15T01:48:08;5.30;99.90
13798;DHT22;6970;51.340;3.240;2024-01-15T01:50:36;5.40;99.90
13798;DHT22;6970;51.340;3.240;2024-01-15T01:53:09;5.40;99.90
13798;DHT22;6970;51.340;3.240;2024-01-15T01:55:42;5.40;99.90
13798;DHT22;6970;51.340;3.240;2024-01-15T01:58:10;5.40;99.90
13798;DHT22;6970;51.340;3.240;2024-01-15T02:00:37;5.30;99.90
13798;DHT22;6970;51.340;3.240;2024-01-15T02:03:08;5.30;99.90
13798;DHT22;6970;51.340;3.240;2024-01-15T02:05:39;5.30;99.90
13798;DHT22;6970;51.340;3.240;2024-01-15T02:08:07;5.30;99.90
13798;DHT22;6970;51.340;3.240;2024-01-15T02:10:35;5.30;99.90
13798;DHT22;6970;51.340;3.240;2024-01-15T02:13:05;5.30;99.90
13798;DHT22;6970;51.340;3.240;2024-01-15T02:15:32;5.30;99.90
13798;DHT22;6970;51.340;3.240;2024-01-15T02:18:04;5.30;99.90
13798;DHT22;6970;51.340;3.240;2024-01-15T02:20:32;5.30;99.90
13798;DHT22;6970;51.340;3.240;2024-01-15T02:25:32;5.30;99.90
13798;DHT22;6970;51.340;3.240;2024-01-15T02:28:02;5.30;99.90
13798;DHT22;6970;51.340;3.240;2024-01-15T02:30:31;5.30;99.90
13798;DHT22;6970;51.340;3.240;2024-01-15T02:33:02;5.30;99.90
13798;DHT22;6970;51.340;3.240;2024-01-15T02:35:31;5.30;99.90
13798;DHT22;6970;51.340;3.240;2024-01-15T02:37:59;5.30;99.90
13798;DHT22;6970;51.340;3.240;2024-01-15T02:40:27;5.30;99.90
13798;DHT22;6970;51.340;3.240;2024-01-15T02:42:54;5.30;99.90
13798;DHT22;6970;51.340;3.240;2024-01-15T02:45:27;5.30;99.90
13798;DHT22;6970;51.340;3.240;2024-01-15T02:47:56;5.30;99.90
13798;DHT22;6970;51.340;3.240;2024-01-15T02:50:24;5.30;99.90
13798;DHT22;6970;51.340;3.240;2024-01-15T02:52:51;5.30;99.90
13798;DHT22;6970;51.340;3.240;2024-01-15T02:55:20;5.30;99.90
13798;DHT22;6970;51.340;3.240;2024-01-15T02:57:49;5.30;99.90
13798;DHT22;6970;51.340;3.240;2024-01-15T03:00:16;5.30;99.90
13798;DHT22;6970;51.340;3.240;2024-01-15T03:02:44;5.20;99.90
13798;DHT22;6970;51.340;3.240;2024-01-15T03:05:14;5.20;99.90
13798;DHT22;6970;51.340;3.240;2024-01-15T03:07:42;5.20;99.90
13798;DHT22;6970;51.340;3.240;2024-01-15T03:10:09;5.20;99.90
13798;DHT22;6970;51.340;3.240;2024-01-15T03:12:38;5.20;99.90
13798;DHT22;6970;51.340;3.240;2024-01-15T03:15:05;5.10;99.90
13798;DHT22;6970;51.340;3.240;2024-01-15T03:17:32;5.10;99.90
13798;DHT22;6970;51.340;3.240;2024-01-15T03:20:03;5.10;99.90
13798;DHT22;6970;51.340;3.240;2024-01-15T03:22:31;5.00;99.90
13798;DHT22;6970;51.340;3.240;2024-01-15T03:24:58;5.00;99.90
13798;DHT22;6970;51.340;3.240;2024-01-15T03:27:28;5.00;99.90
13798;DHT22;6970;51.340;3.240;2024-01-15T03:29:55;5.00;99.90
13798;DHT22;6970;51.340;3.240;2024-01-15T03:32:22;4.90;99.90
13798;DHT22;6970;51.340;3.240;2024-01-15T03:34:55;4.80;99.90
13798;DHT22;6970;51.340;3.240;2024-01-15T03:37:25;4.80;99.90
13798;DHT22;6970;51.340;3.240;2024-01-15T03:39:54;4.80;99.90
13798;DHT22;6970;51.340;3.240;2024-01-15T03:42:22;4.80;99.90
13798;DHT22;6970;51.340;3.240;2024-01-15T03:44:52;4.70;99.90
13798;DHT22;6970;51.340;3.240;2024-01-15T03:47:20;4.70;99.90
13798;DHT22;6970;51.340;3.240;2024-01-15T03:49:50;4.70;99.90
13798;DHT22;6970;51.340;3.240;2024-01-15T03:52:17;4.60;99.90
13798;DHT22;6970;51.340;3.240;2024-01-15T03:54:44;4.60;99.90
13798;DHT22;6970;51.340;3.240;2024-01-15T03:57:14;4.60;99.90
13798;DHT22;6970;51.340;3.240;2024-01-15T03:59:43;4.60;99.90
13798;DHT22;6970;51.340;3.240;2024-01-15T04:02:12;4.60;99.90
13798;DHT22;6970;51.340;3.240;2024-01-15T04:04:43;4.60;99.90
13798;DHT22;6970;51.340;3.240;2024-01-15T04:07:13;4.60;99.90
13798;DHT22;6970;51.340;3.240;2024-01-15T04:09:41;4.50;99.90
13798;DHT22;6970;51.340;3.240;2024-01-15T04:12:08;4.60;99.90
13798;DHT22;6970;51.340;3.240;2024-01-15T04:14:38;4.50;99.90
13798;DHT22;6970;51.340;3.240;2024-01-15T04:17:07;4.50;99.90
13798;DHT22;6970;51.340;3.240;2024-01-15T04:19:36;4.50;99.90
13798;DHT22;6970;51.340;3.240;2024-01-15T04:22:04;4.50;99.90
13798;DHT22;6970;51.340;3.240;2024-01-15T04:24:32;4.50;99.90
13798;DHT22;6970;51.340;3.240;2024-01-15T04:27:02;4.50;99.90
13798;DHT22;6970;51.340;3.240;2024-01-15T04:29:29;4.50;99.90
13798;DHT22;6970;51.340;3.240;2024-01-15T04:31:56;4.50;99.90
13798;DHT22;6970;51.340;3.240;2024-01-15T04:34:23;4.50;99.90
13798;DHT22;6970;51.340;3.240;2024-01-15T04:36:51;4.50;99.90
13798;DHT22;6970;51.340;3.240;2024-01-15T04:39:19;4.50;99.90
13798;DHT22;6970;51.340;3.240;2024-01-15T04:41:48;4.50;99.90
13798;DHT22;6970;51.340;3.240;2024-01-15T04:44:15;4.50;99.90
13798;DHT22;6970;51.340;3.240;2024-01-15T04:46:43;4.60;99.90
13798;DHT22;6970;51.340;3.240;2024-01-15T04:49:13;4.60;99.90
13798;DHT22;6970;51.340;3.240;2024-01-15T04:51:41;4.70;99.90
13798;DHT22;6970;51.340;3.240;2024-01-15T04:54:09;4.60;99.90
13798;DHT22;6970;51.340;3.240;2024-01-15T04:56:39;4.60;99.90
13798;DHT22;6970;51.340;3.240;2024-01-15T04:59:07;4.70;99.90
13798;DHT22;6970;51.340;3.240;2024-01-15T05:01:43;4.70;99.90
13798;DHT22;6970;51.340;3.240;2024-01-15T05:04:10;4.70;99.90
13798;DHT22;6970;51.340;3.240;2024-01-15T05:06:41;4.70;99.90
13798;DHT22;6970;51.340;3.240;2024-01-15T05:09:08;4.70;99.90
13798;DHT22;6970;51.340;3.240;2024-01-15T05:11:38;4.70;99.90
13798;DHT22;6970;51.340;3.240;2024-01-15T05:14:06;4.70;99.90
13798;DHT22;6970;51.340;3.240;2024-01-15T05:16:35;4.70;99.90
13798;DHT22;6970;51.340;3.240;2024-01-15T05:19:02;4.70;99.90
13798;DHT22;6970;51.340;3.240;2024-01-15T05:21:31;4.70;99.90
13798;DHT22;6970;51.340;3.240;2024-01-15T05:24:01;4.70;99.90
13798;DHT22;6970;51.340;3.240;2024-01-15T05:26:31;4.70;99.90
13798;DHT22;6970;51.340;3.240;2024-01-15T05:29:01;4.70;99.90
13798;DHT22;6970;51.340;3.240;2024-01-15T05:31:31;4.70;99.90
13798;DHT22;6970;51.340;3.240;2024-01-15T05:33:58;4.60;99.90
13798;DHT22;6970;51.340;3.240;2024-01-15T05:36:25;4.70;99.90
13798;DHT22;6970;51.340;3.240;2024-01-15T05:38:55;4.60;99.90
13798;DHT22;6970;51.340;3.240;2024-01-15T05:41:24;4.60;99.90
13798;DHT22;6970;51.340;3.240;2024-01-15T05:43:51;4.60;99.90
13798;DHT22;6970;51.340;3.240;2024-01-15T05:46:20;4.50;99.90
13798;DHT22;6970;51.340;3.240;2024-01-15T05:48:49;4.50;99.90
13798;DHT22;6970;51.340;3.240;2024-01-15T05:51:19;4.50;99.90
13798;DHT22;6970;51.340;3.240;2024-01-15T05:53:48;4.50;99.90
13798;DHT22;6970;51.340;3.240;2024-01-15T05:56:18;4.50;99.90
13798;DHT22;6970;51.340;3.240;2024-01-15T05:58:48;4.50;99.90
13798;DHT22;6970;51.340;3.240;2024-01-15T06:01:15;4.50;99.90
13798;DHT22;6970;51.340;3.240;2024-01-15T06:03:44;4.40;99.90
13798;DHT22;6970;51.340;3.240;2024-01-15T06:06:13;4.40;99.90
13798;DHT22;6970;51.340;3.240;2024-01-15T06:08:42;4.50;99.90
13798;DHT22;6970;51.340;3.240;2024-01-15T06:11:12;4.50;99.90
13798;DHT22;6970;51.340;3.240;2024-01-15T06:13:42;4.50;99.90
13798;DHT22;6970;51.340;3.240;2024-01-15T06:16:16;4.50;99.90
13798;DHT22;6970;51.340;3.240;2024-01-15T06:18:43;4.40;99.90
13798;DHT22;6970;51.340;3.240;2024-01-15T06:21:14;4.40;99.90
13798;DHT22;6970;51.340;3.240;2024-01-15T06:23:43;4.30;99.90
13798;DHT22;6970;51.340;3.240;2024-01-15T06:26:14;4.30;99.90
13798;DHT22;6970;51.340;3.240;2024-01-15T06:28:41;4.30;99.90
13798;DHT22;6970;51.340;3.240;2024-01-15T06:31:09;4.30;99.90
13798;DHT22;6970;51.340;3.240;2024-01-15T06:33:36;4.30;99.90
13798;DHT22;6970;51.340;3.240;2024-01-15T06:36:10;4.30;99.90
13798;DHT22;6970;51.340;3.240;2024-01-15T06:38:38;4.30;99.90
13798;DHT22;6970;51.340;3.240;2024-01-15T06:41:07;4.30;99.90
13798;DHT22;6970;51.340;3.240;2024-01-15T06:43:37;4.30;99.90
13798;DHT22;6970;51.340;3.240;2024-01-15T06:46:07;4.30;99.90
13798;DHT22;6970;51.340;3.240;2024-01-15T06:48:37;4.30;99.90
13798;DHT22;6970;51.340;3.240;2024-01-15T06:51:07;4.30;99.90
13798;DHT22;6970;51.340;3.240;2024-01-15T06:53:40;4.30;99.90
13798;DHT22;6970;51.340;3.240;2024-01-15T06:56:07;4.30;99.90
13798;DHT22;6970;51.340;3.240;2024-01-15T06:58:37;4.30;99.90
13798;DHT22;6970;51.340;3.240;2024-01-15T07:01:11;4.30;99.90
13798;DHT22;6970;51.340;3.240;2024-01-15T07:03:38;4.30;99.90
13798;DHT22;6970;51.340;3.240;2024-01-15T07:06:05;4.30;99.90
13798;DHT22;6970;51.340;3.240;2024-01-15T07:08:32;4.20;99.90
13798;DHT22;6970;51.340;3.240;2024-01-15T07:11:03;4.20;99.90
13798;DHT22;6970;51.340;3.240;2024-01-15T07:13:33;4.20;99.90
13798;DHT22;6970;51.340;3.240;2024-01-15T07:16:00;4.20;99.90
13798;DHT22;6970;51.340;3.240;2024-01-15T07:18:29;4.20;99.90
13798;DHT22;6970;51.340;3.240;2024-01-15T07:20:57;4.20;99.90
13798;DHT22;6970;51.340;3.240;2024-01-15T07:23:24;4.20;99.90
13798;DHT22;6970;51.340;3.240;2024-01-15T07:25:54;4.20;99.90
13798;DHT22;6970;51.340;3.240;2024-01-15T07:28:22;4.20;99.90
13798;DHT22;6970;51.340;3.240;2024-01-15T07:30:51;4.20;99.90
13798;DHT22;6970;51.340;3.240;2024-01-15T07:33:19;4.20;99.90
13798;DHT22;6970;51.340;3.240;2024-01-15T07:35:47;4.20;99.90
13798;DHT22;6970;51.340;3.240;2024-01-15T07:38:15;4.20;99.90
13798;DHT22;6970;51.340;3.240;2024-01-15T07:40:43;4.20;99.90
13798;DHT22;6970;51.340;3.240;2024-01-15T07:43:14;4.20;99.90
13798;DHT22;6970;51.340;3.240;2024-01-15T07:45:44;4.20;99.90
13798;DHT22;6970;51.340;3.240;2024-01-15T07:48:13;4.20;99.90
13798;DHT22;6970;51.340;3.240;2024-01-15T07:50:43;4.20;99.90
13798;DHT22;6970;51.340;3.240;2024-01-15T07:53:10;4.20;99.90
13798;DHT22;6970;51.340;3.240;2024-01-15T07:55:38;4.20;99.90
13798;DHT22;6970;51.340;3.240;2024-01-15T07:58:06;4.30;99.90
13798;DHT22;6970;51.340;3.240;2024-01-15T08:00:43;4.30;99.90
13798;DHT22;6970;51.340;3.240;2024-01-15T08:03:13;4.40;99.90
13798;DHT22;6970;51.340;3.240;2024-01-15T08:05:42;4.30;99.90
13798;DHT22;6970;51.340;3.240;2024-01-15T08:08:12;4.40;99.90
13798;DHT22;6970;51.340;3.240;2024-01-15T08:10:41;4.40;99.90
13798;DHT22;6970;51.340;3.240;2024-01-15T08:13:09;4.40;99.90
13798;DHT22;6970;51.340;3.240;2024-01-15T08:15:43;4.50;99.90
13798;DHT22;6970;51.340;3.240;2024-01-15T08:18:13;4.60;99.90
13798;DHT22;6970;51.340;3.240;2024-01-15T08:20:42;4.60;99.90
13798;DHT22;6970;51.340;3.240;2024-01-15T08:23:10;4.60;99.90
13798;DHT22;6970;51.340;3.240;2024-01-15T08:25:37;4.60;99.90
13798;DHT22;6970;51.340;3.240;2024-01-15T08:28:05;4.50;99.90
13798;DHT22;6970;51.340;3.240;2024-01-15T08:30:34;4.50;99.90
13798;DHT22;6970;51.340;3.240;2024-01-15T08:33:05;4.60;99.90
13798;DHT22;6970;51.340;3.240;2024-01-15T08:35:44;4.70;99.90
13798;DHT22;6970;51.340;3.240;2024-01-15T08:38:19;4.90;99.90
13798;DHT22;6970;51.340;3.240;2024-01-15T08:40:46;5.00;99.90
13798;DHT22;6970;51.340;3.240;2024-01-15T08:43:14;5.10;99.90
13798;DHT22;6970;51.340;3.240;2024-01-15T08:45:43;5.20;99.90
13798;DHT22;6970;51.340;3.240;2024-01-15T08:48:17;5.30;99.90
13798;DHT22;6970;51.340;3.240;2024-01-15T08:50:44;5.20;99.90
13798;DHT22;6970;51.340;3.240;2024-01-15T08:53:15;5.10;99.90
13798;DHT22;6970;51.340;3.240;2024-01-15T08:55:44;5.10;99.90
13798;DHT22;6970;51.340;3.240;2024-01-15T08:58:11;5.00;99.90
13798;DHT22;6970;51.340;3.240;2024-01-15T09:00:38;5.00;99.90
13798;DHT22;6970;51.340;3.240;2024-01-15T09:03:07;5.00;99.90
13798;DHT22;6970;51.340;3.240;2024-01-15T09:05:38;5.00;99.90
13798;DHT22;6970;51.340;3.240;2024-01-15T09:08:07;5.10;99.90
13798;DHT22;6970;51.340;3.240;2024-01-15T09:10:36;5.20;99.90
13798;DHT22;6970;51.340;3.240;2024-01-15T09:13:03;5.30;99.90
13798;DHT22;6970;51.340;3.240;2024-01-15T09:15:31;5.40;99.90
13798;DHT22;6970;51.340;3.240;2024-01-15T09:17:59;5.40;99.90
13798;DHT22;6970;51.340;3.240;2024-01-15T09:20:33;5.50;99.90
13798;DHT22;6970;51.340;3.240;2024-01-15T09:23:03;6.10;99.90
13798;DHT22;6970;51.340;3.240;2024-01-15T09:25:31;7.60;99.90
13798;DHT22;6970;51.340;3.240;2024-01-15T09:27:59;9.10;99.90
13798;DHT22;6970;51.340;3.240;2024-01-15T09:30:26;10.50;99.90
13798;DHT22;6970;51.340;3.240;2024-01-15T09:32:55;11.70;99.90
13798;DHT22;6970;51.340;3.240;2024-01-15T09:35:22;12.70;98.00
13798;DHT22;6970;51.340;3.240;2024-01-15T09:37:54;13.50;96.60
13798;DHT22;6970;51.340;3.240;2024-01-15T09:40:25;14.00;94.30
13798;DHT22;6970;51.340;3.240;2024-01-15T09:42:58;14.00;94.00
13798;DHT22;6970;51.340;3.240;2024-01-15T09:45:31;14.50;93.70
13798;DHT22;6970;51.340;3.240;2024-01-15T09:47:58;14.10;92.60
13798;DHT22;6970;51.340;3.240;2024-01-15T09:50:26;13.00;92.90
13798;DHT22;6970;51.340;3.240;2024-01-15T09:52:55;11.90;93.80
13798;DHT22;6970;51.340;3.240;2024-01-15T09:55:25;11.20;95.50
13798;DHT22;6970;51.340;3.240;2024-01-15T09:57:55;10.80;96.10
13798;DHT22;6970;51.340;3.240;2024-01-15T10:00:23;10.40;96.70
13798;DHT22;6970;51.340;3.240;2024-01-15T10:02:52;10.20;97.90
13798;DHT22;6970;51.340;3.240;2024-01-15T10:05:21;10.90;98.70
13798;DHT22;6970;51.340;3.240;2024-01-15T10:07:52;12.10;96.80
13798;DHT22;6970;51.340;3.240;2024-01-15T10:10:23;11.90;95.80
13798;DHT22;6970;51.340;3.240;2024-01-15T10:12:51;11.40;95.50
13798;DHT22;6970;51.340;3.240;2024-01-15T10:15:22;10.50;96.60
13798;DHT22;6970;51.340;3.240;2024-01-15T10:17:51;10.70;98.20
13798;DHT22;6970;51.340;3.240;2024-01-15T10:20:21;11.80;97.30
13798;DHT22;6970;51.340;3.240;2024-01-15T10:22:50;12.70;96.10
13798;DHT22;6970;51.340;3.240;2024-01-15T10:25:17;13.30;94.70
13798;DHT22;6970;51.340;3.240;2024-01-15T10:28:13;13.80;94.10
13798;DHT22;6970;51.340;3.240;2024-01-15T10:30:43;13.30;93.20
13798;DHT22;6970;51.340;3.240;2024-01-15T10:33:11;12.70;93.70
13798;DHT22;6970;51.340;3.240;2024-01-15T10:35:42;12.40;95.20
13798;DHT22;6970;51.340;3.240;2024-01-15T10:38:12;12.80;94.90
13798;DHT22;6970;51.340;3.240;2024-01-15T10:40:40;13.20;94.00
13798;DHT22;6970;51.340;3.240;2024-01-15T10:43:09;13.10;93.40
13798;DHT22;6970;51.340;3.240;2024-01-15T10:45:37;12.60;93.50
13798;DHT22;6970;51.340;3.240;2024-01-15T10:48:05;11.90;94.40
13798;DHT22;6970;51.340;3.240;2024-01-15T10:50:32;11.70;95.50
13798;DHT22;6970;51.340;3.240;2024-01-15T10:53:00;11.70;95.60
13798;DHT22;6970;51.340;3.240;2024-01-15T10:55:30;12.40;95.30
13798;DHT22;6970;51.340;3.240;2024-01-15T10:58:00;12.80;94.00
13798;DHT22;6970;51.340;3.240;2024-01-15T11:00:28;12.50;93.70
13798;DHT22;6970;51.340;3.240;2024-01-15T11:02:56;11.70;94.50
13798;DHT22;6970;51.340;3.240;2024-01-15T11:05:24;10.80;95.20
13798;DHT22;6970;51.340;3.240;2024-01-15T11:07:58;9.90;96.50
13798;DHT22;6970;51.340;3.240;2024-01-15T11:10:53;9.40;97.60
13798;DHT22;6970;51.340;3.240;2024-01-15T11:16:10;8.60;99.00
13798;DHT22;6970;51.340;3.240;2024-01-15T11:21:29;7.90;99.90
13798;DHT22;6970;51.340;3.240;2024-01-15T11:24:00;7.50;99.90
13798;DHT22;6970;51.340;3.240;2024-01-15T11:26:32;7.20;99.90
13798;DHT22;6970;51.340;3.240;2024-01-15T11:29:06;7.00;99.90
13798;DHT22;6970;51.340;3.240;2024-01-15T11:34:09;6.70;99.90
13798;DHT22;6970;51.340;3.240;2024-01-15T11:37:03;6.60;99.90
13798;DHT22;6970;51.340;3.240;2024-01-15T11:42:02;6.40;99.90
13798;DHT22;6970;51.340;3.240;2024-01-15T11:44:32;6.40;99.90
13798;DHT22;6970;51.340;3.240;2024-01-15T11:52:01;6.20;99.90
13798;DHT22;6970;51.340;3.240;2024-01-15T11:54:33;6.20;99.90
13798;DHT22;6970;51.340;3.240;2024-01-15T11:57:10;6.30;99.90
13798;DHT22;6970;51.340;3.240;2024-01-15T11:59:41;6.60;99.90
13798;DHT22;6970;51.340;3.240;2024-01-15T12:02:09;6.70;99.90
13798;DHT22;6970;51.340;3.240;2024-01-15T12:04:38;6.90;99.90
13798;DHT22;6970;51.340;3.240;2024-01-15T12:07:08;7.20;99.90
13798;DHT22;6970;51.340;3.240;2024-01-15T12:09:43;7.60;99.90
13798;DHT22;6970;51.340;3.240;2024-01-15T12:12:20;7.80;99.90
13798;DHT22;6970;51.340;3.240;2024-01-15T12:14:54;8.00;99.90
13798;DHT22;6970;51.340;3.240;2024-01-15T12:17:21;8.00;99.90
13798;DHT22;6970;51.340;3.240;2024-01-15T12:19:51;8.00;99.90
13798;DHT22;6970;51.340;3.240;2024-01-15T12:22:20;8.10;99.90
13798;DHT22;6970;51.340;3.240;2024-01-15T12:24:49;8.20;99.90
13798;DHT22;6970;51.340;3.240;2024-01-15T12:27:16;8.20;99.90
13798;DHT22;6970;51.340;3.240;2024-01-15T12:29:46;8.00;99.90
13798;DHT22;6970;51.340;3.240;2024-01-15T12:32:15;7.80;99.90
13798;DHT22;6970;51.340;3.240;2024-01-15T12:34:45;7.60;99.90
13798;DHT22;6970;51.340;3.240;2024-01-15T12:37:13;7.40;99.90
13798;DHT22;6970;51.340;3.240;2024-01-15T12:39:44;7.20;99.90
13798;DHT22;6970;51.340;3.240;2024-01-15T12:42:15;7.00;99.90
13798;DHT22;6970;51.340;3.240;2024-01-15T12:44:48;6.90;99.90
13798;DHT22;6970;51.340;3.240;2024-01-15T12:47:15;6.70;99.90
13798;DHT22;6970;51.340;3.240;2024-01-15T12:49:48;6.70;99.90
13798;DHT22;6970;51.340;3.240;2024-01-15T12:52:32;6.50;99.90
13798;DHT22;6970;51.340;3.240;2024-01-15T12:54:59;6.50;99.90
13798;DHT22;6970;51.340;3.240;2024-01-15T12:57:29;6.40;99.90
13798;DHT22;6970;51.340;3.240;2024-01-15T12:59:57;6.30;99.90
13798;DHT22;6970;51.340;3.240;2024-01-15T13:02:24;6.30;99.90
13798;DHT22;6970;51.340;3.240;2024-01-15T13:04:51;6.20;99.90
13798;DHT22;6970;51.340;3.240;2024-01-15T13:07:19;6.10;99.90
13798;DHT22;6970;51.340;3.240;2024-01-15T13:09:47;6.10;99.90
13798;DHT22;6970;51.340;3.240;2024-01-15T13:12:18;6.00;99.90
13798;DHT22;6970;51.340;3.240;2024-01-15T13:14:47;5.90;99.90
13798;DHT22;6970;51.340;3.240;2024-01-15T13:17:15;5.90;99.90
13798;DHT22;6970;51.340;3.240;2024-01-15T13:19:48;5.90;99.90
13798;DHT22;6970;51.340;3.240;2024-01-15T13:22:18;5.90;99.90
13798;DHT22;6970;51.340;3.240;2024-01-15T13:24:45;5.90;99.90
13798;DHT22;6970;51.340;3.240;2024-01-15T13:27:13;5.90;99.90
13798;DHT22;6970;51.340;3.240;2024-01-15T13:29:40;6.10;99.90
13798;DHT22;6970;51.340;3.240;2024-01-15T13:32:07;6.20;99.90
13798;DHT22;6970;51.340;3.240;2024-01-15T13:34:37;6.20;99.90
13798;DHT22;6970;51.340;3.240;2024-01-15T13:37:07;6.20;99.90
13798;DHT22;6970;51.340;3.240;2024-01-15T13:39:38;6.10;99.90
13798;DHT22;6970;51.340;3.240;2024-01-15T13:42:05;6.10;99.90
13798;DHT22;6970;51.340;3.240;2024-01-15T13:44:32;6.10;99.90
13798;DHT22;6970;51.340;3.240;2024-01-15T13:47:00;6.00;99.90
13798;DHT22;6970;51.340;3.240;2024-01-15T13:49:27;6.00;99.90
13798;DHT22;6970;51.340;3.240;2024-01-15T13:51:56;6.00;99.90
13798;DHT22;6970;51.340;3.240;2024-01-15T13:54:25;6.00;99.90
13798;DHT22;6970;51.340;3.240;2024-01-15T13:57:14;6.00;99.90
13798;DHT22;6970;51.340;3.240;2024-01-15T13:59:43;6.00;99.90
13798;DHT22;6970;51.340;3.240;2024-01-15T14:02:10;6.00;99.90
13798;DHT22;6970;51.340;3.240;2024-01-15T14:04:40;6.10;99.90
13798;DHT22;6970;51.340;3.240;2024-01-15T14:07:11;6.20;99.90
13798;DHT22;6970;51.340;3.240;2024-01-15T14:09:40;6.20;99.90
13798;DHT22;6970;51.340;3.240;2024-01-15T14:12:09;6.20;99.90
13798;DHT22;6970;51.340;3.240;2024-01-15T14:14:37;6.20;99.90
13798;DHT22;6970;51.340;3.240;2024-01-15T14:17:10;6.10;99.90
13798;DHT22;6970;51.340;3.240;2024-01-15T14:19:43;6.10;99.90
13798;DHT22;6970;51.340;3.240;2024-01-15T14:22:13;6.30;99.90
13798;DHT22;6970;51.340;3.240;2024-01-15T14:24:42;6.40;99.90
13798;DHT22;6970;51.340;3.240;2024-01-15T14:27:13;6.40;99.90
13798;DHT22;6970;51.340;3.240;2024-01-15T14:29:43;6.30;99.90
13798;DHT22;6970;51.340;3.240;2024-01-15T14:32:11;6.20;99.90
13798;DHT22;6970;51.340;3.240;2024-01-15T14:34:41;6.20;99.90
13798;DHT22;6970;51.340;3.240;2024-01-15T14:37:08;6.10;99.90
13798;DHT22;6970;51.340;3.240;2024-01-15T14:39:35;6.10;99.90
13798;DHT22;6970;51.340;3.240;2024-01-15T14:42:03;6.10;99.90
13798;DHT22;6970;51.340;3.240;2024-01-15T14:44:31;6.10;99.90
13798;DHT22;6970;51.340;3.240;2024-01-15T14:47:01;6.00;99.90
13798;DHT22;6970;51.340;3.240;2024-01-15T14:49:31;6.00;99.90
13798;DHT22;6970;51.340;3.240;2024-01-15T14:52:01;6.00;99.90
13798;DHT22;6970;51.340;3.240;2024-01-15T14:54:31;5.90;99.90
13798;DHT22;6970;51.340;3.240;2024-01-15T14:56:58;5.90;99.90
13798;DHT22;6970;51.340;3.240;2024-01-15T14:59:27;5.80;99.90
13798;DHT22;6970;51.340;3.240;2024-01-15T15:01:56;5.80;99.90
13798;DHT22;6970;51.340;3.240;2024-01-15T15:04:25;5.70;99.90
13798;DHT22;6970;51.340;3.240;2024-01-15T15:06:54;5.70;99.90
13798;DHT22;6970;51.340;3.240;2024-01-15T15:09:25;5.60;99.90
13798;DHT22;6970;51.340;3.240;2024-01-15T15:11:52;5.60;99.90
13798;DHT22;6970;51.340;3.240;2024-01-15T15:14:19;5.50;99.90
13798;DHT22;6970;51.340;3.240;2024-01-15T15:16:49;5.50;99.90
13798;DHT22;6970;51.340;3.240;2024-01-15T15:19:23;5.50;99.90
13798;DHT22;6970;51.340;3.240;2024-01-15T15:21:58;5.40;99.90
13798;DHT22;6970;51.340;3.240;2024-01-15T15:24:31;5.40;99.90
13798;DHT22;6970;51.340;3.240;2024-01-15T15:27:00;5.40;99.90
13798;DHT22;6970;51.340;3.240;2024-01-15T15:29:27;5.40;99.90
13798;DHT22;6970;51.340;3.240;2024-01-15T15:31:55;5.30;99.90
13798;DHT22;6970;51.340;3.240;2024-01-15T15:34:23;5.30;99.90
13798;DHT22;6970;51.340;3.240;2024-01-15T15:36:52;5.30;99.90
13798;DHT22;6970;51.340;3.240;2024-01-15T15:39:19;5.30;99.90
13798;DHT22;6970;51.340;3.240;2024-01-15T15:41:47;5.30;99.90
13798;DHT22;6970;51.340;3.240;2024-01-15T15:44:19;5.30;99.90
13798;DHT22;6970;51.340;3.240;2024-01-15T15:46:49;5.20;99.90
13798;DHT22;6970;51.340;3.240;2024-01-15T15:49:18;5.20;99.90
13798;DHT22;6970;51.340;3.240;2024-01-15T15:51:48;5.10;99.90
13798;DHT22;6970;51.340;3.240;2024-01-15T15:54:19;5.10;99.90
13798;DHT22;6970;51.340;3.240;2024-01-15T15:56:48;5.00;99.90
13798;DHT22;6970;51.340;3.240;2024-01-15T15:59:18;5.00;99.90
13798;DHT22;6970;51.340;3.240;2024-01-15T16:01:51;5.00;99.90
13798;DHT22;6970;51.340;3.240;2024-01-15T16:04:19;5.00;99.90
13798;DHT22;6970;51.340;3.240;2024-01-15T16:06:50;4.90;99.90
13798;DHT22;6970;51.340;3.240;2024-01-15T16:09:18;4.90;99.90
13798;DHT22;6970;51.340;3.240;2024-01-15T16:11:45;4.90;99.90
13798;DHT22;6970;51.340;3.240;2024-01-15T16:14:13;4.90;99.90
13798;DHT22;6970;51.340;3.240;2024-01-15T16:16:44;4.90;99.90
13798;DHT22;6970;51.340;3.240;2024-01-15T16:19:32;4.80;99.90
13798;DHT22;6970;51.340;3.240;2024-01-15T16:22:19;4.90;99.90
13798;DHT22;6970;51.340;3.240;2024-01-15T16:25:07;4.90;99.90
13798;DHT22;6970;51.340;3.240;2024-01-15T16:27:38;4.90;99.90
13798;DHT22;6970;51.340;3.240;2024-01-15T16:30:06;4.90;99.90
13798;DHT22;6970;51.340;3.240;2024-01-15T16:32:48;4.90;99.90